createdAt,value
2019-03-30T00:02:16.344Z,52.60
2019-03-30T00:04:46.603Z,53.77
2019-03-30T00:07:16.798Z,52.23
2019-03-30T00:09:47.225Z,52.47
2019-03-30T00:12:17.467Z,51.57
2019-03-30T00:14:47.650Z,52.07
2019-03-30T00:17:18.023Z,52.43
2019-03-30T00:19:48.211Z,51.97
2019-03-30T00:22:18.408Z,52.23
2019-03-30T00:24:48.594Z,51.77
2019-03-30T00:27:19.750Z,53.00
2019-03-30T00:29:50.002Z,52.50
2019-03-30T00:32:20.374Z,52.10
2019-03-30T00:34:50.551Z,52.37
2019-03-30T00:37:20.741Z,51.70
2019-03-30T00:40:09.888Z,51.87
2019-03-30T00:42:40.066Z,51.63
2019-03-30T00:45:10.521Z,53.03
2019-03-30T00:47:40.751Z,53.10
2019-03-30T00:50:11.205Z,52.27
2019-03-30T00:52:41.395Z,52.17
2019-03-30T00:55:11.667Z,52.77
2019-03-30T00:57:41.872Z,52.40
2019-03-30T01:00:12.562Z,53.07
2019-03-30T01:02:42.915Z,53.37
2019-03-30T01:05:13.367Z,52.83
2019-03-30T01:07:43.568Z,53.23
2019-03-30T01:10:14.195Z,52.17
2019-03-30T01:12:44.390Z,53.10
2019-03-30T01:15:14.722Z,53.13
2019-03-30T01:17:45.014Z,52.47
2019-03-30T01:20:15.455Z,53.30
2019-03-30T01:22:45.654Z,52.77
2019-03-30T01:25:15.838Z,53.40
2019-03-30T01:27:46.022Z,53.27
2019-03-30T01:30:23.043Z,51.77
2019-03-30T01:32:48.443Z,52.27
2019-03-30T01:35:18.739Z,52.70
2019-03-30T01:37:48.992Z,52.40
2019-03-30T01:40:19.334Z,52.33
2019-03-30T01:42:49.523Z,53.57
2019-03-30T01:45:19.698Z,53.13
2019-03-30T01:47:49.898Z,52.77
2019-03-30T01:50:20.150Z,54.03
2019-03-30T01:52:50.351Z,52.83
2019-03-30T01:55:20.606Z,53.63
2019-03-30T01:57:50.794Z,52.80
2019-03-30T02:00:21.231Z,53.90
2019-03-30T02:02:51.426Z,52.70
2019-03-30T02:05:21.675Z,53.63
2019-03-30T02:07:51.867Z,53.27
2019-03-30T02:10:44.905Z,53.37
2019-03-30T02:13:15.266Z,52.03
2019-03-30T02:15:45.919Z,52.40
2019-03-30T02:18:16.190Z,52.77
2019-03-30T02:20:47.302Z,52.70
2019-03-30T02:23:18.646Z,53.03
2019-03-30T02:25:48.806Z,53.57
2019-03-30T02:28:20.077Z,52.67
2019-03-30T02:30:50.269Z,53.27
2019-03-30T02:33:20.515Z,52.83
2019-03-30T02:35:50.852Z,53.70
2019-03-30T02:38:21.032Z,53.03
2019-03-30T02:40:52.504Z,53.13
2019-03-30T02:43:22.687Z,53.17
2019-03-30T02:45:52.871Z,53.63
2019-03-30T02:48:23.063Z,51.97
2019-03-30T02:50:53.232Z,52.20
2019-03-30T02:53:23.421Z,52.33
2019-03-30T02:55:53.602Z,52.43
2019-03-30T02:58:23.786Z,51.77
2019-03-30T03:00:53.975Z,53.10
2019-03-30T03:03:24.165Z,52.13
2019-03-30T03:05:54.384Z,53.20
2019-03-30T03:08:25.647Z,52.57
2019-03-30T03:10:55.834Z,52.37
2019-03-30T03:13:26.025Z,52.53
2019-03-30T03:15:56.213Z,51.73
2019-03-30T03:18:26.387Z,52.43
2019-03-30T03:21:07.503Z,52.53
2019-03-30T03:23:28.620Z,51.90
2019-03-30T03:25:58.795Z,53.23
2019-03-30T03:28:29.076Z,52.97
2019-03-30T03:30:59.259Z,51.93
2019-03-30T03:33:29.450Z,52.73
2019-03-30T03:35:59.679Z,52.40
2019-03-30T03:38:29.880Z,52.73
2019-03-30T03:41:00.236Z,52.73
2019-03-30T03:43:30.431Z,52.07
2019-03-30T03:46:00.803Z,51.80
2019-03-30T03:48:31.019Z,52.50
2019-03-30T03:51:03.385Z,53.33
2019-03-30T03:53:35.522Z,51.30
2019-03-30T03:56:06.143Z,53.23
2019-03-30T03:58:37.080Z,51.80
2019-03-30T04:01:07.396Z,51.70
2019-03-30T04:03:38.459Z,51.83
2019-03-30T04:06:08.868Z,51.67
2019-03-30T04:08:41.529Z,52.10
2019-03-30T04:11:14.455Z,51.30
2019-03-30T04:13:46.498Z,51.27
2019-03-30T04:16:16.670Z,50.77
2019-03-30T04:18:48.303Z,51.50
2019-03-30T04:21:18.915Z,51.50
2019-03-30T04:23:49.091Z,51.57
2019-03-30T04:26:19.260Z,51.17
2019-03-30T04:28:49.607Z,51.10
2019-03-30T04:31:19.798Z,51.80
2019-03-30T04:33:49.987Z,51.17
2019-03-30T04:36:20.192Z,51.53
2019-03-30T04:38:50.482Z,51.67
2019-03-30T04:41:20.650Z,50.50
2019-03-30T04:43:52.548Z,51.00
2019-03-30T04:46:22.727Z,51.00
2019-03-30T04:48:52.922Z,51.33
2019-03-30T04:51:23.104Z,51.50
2019-03-30T04:53:53.288Z,50.00
2019-03-30T04:56:23.466Z,50.47
2019-03-30T04:58:53.666Z,51.37
2019-03-30T05:01:23.843Z,50.50
2019-03-30T05:03:54.307Z,51.87
2019-03-30T05:06:24.554Z,50.73
2019-03-30T05:08:54.750Z,50.27
2019-03-30T05:11:24.924Z,50.93
2019-03-30T05:13:55.114Z,50.70
2019-03-30T05:16:25.302Z,51.60
2019-03-30T05:18:56.660Z,51.00
2019-03-30T05:21:26.853Z,51.33
2019-03-30T05:23:58.207Z,50.73
2019-03-30T05:26:28.391Z,50.80
2019-03-30T05:28:59.010Z,51.57
2019-03-30T05:31:29.191Z,50.60
2019-03-30T05:33:59.370Z,50.97
2019-03-30T05:36:29.551Z,50.10
2019-03-30T05:38:59.730Z,50.77
2019-03-30T05:41:29.914Z,51.00
2019-03-30T05:44:00.117Z,51.60
2019-03-30T05:46:31.303Z,50.07
2019-03-30T05:49:01.483Z,49.73
2019-03-30T05:51:31.742Z,50.90
2019-03-30T05:54:01.943Z,49.93
2019-03-30T05:56:32.118Z,51.37
2019-03-30T05:59:02.307Z,50.63
2019-03-30T06:01:32.486Z,50.60
2019-03-30T06:04:02.675Z,51.03
2019-03-30T06:06:32.860Z,50.33
2019-03-30T06:09:04.090Z,50.03
2019-03-30T06:11:34.263Z,50.10
2019-03-30T06:14:04.545Z,50.30
2019-03-30T06:16:41.046Z,50.50
2019-03-30T06:19:11.250Z,50.57
2019-03-30T06:21:41.433Z,50.40
2019-03-30T06:24:11.627Z,50.83
2019-03-30T06:26:41.811Z,50.63
2019-03-30T06:29:11.995Z,50.27
2019-03-30T06:31:42.166Z,50.60
2019-03-30T06:34:12.351Z,50.33
2019-03-30T06:36:42.603Z,50.20
2019-03-30T06:39:12.790Z,51.17
2019-03-30T06:41:42.968Z,51.20
2019-03-30T06:44:13.158Z,51.47
2019-03-30T06:46:43.332Z,51.20
2019-03-30T06:49:13.871Z,52.17
2019-03-30T06:51:44.290Z,52.07
2019-03-30T06:54:14.901Z,52.10
2019-03-30T06:56:45.137Z,52.73
2019-03-30T06:59:15.396Z,52.40
2019-03-30T07:01:46.258Z,52.67
2019-03-30T07:04:16.697Z,52.13
2019-03-30T07:06:48.231Z,53.20
2019-03-30T07:09:22.377Z,52.13
2019-03-30T07:11:54.667Z,52.37
2019-03-30T07:14:26.824Z,52.60
2019-03-30T07:17:01.563Z,53.50
2019-03-30T07:19:32.118Z,53.03
2019-03-30T07:22:02.305Z,52.53
2019-03-30T07:24:32.498Z,53.80
2019-03-30T07:27:02.854Z,54.33
2019-03-30T07:29:33.047Z,53.37
2019-03-30T07:32:03.232Z,53.50
2019-03-30T07:34:33.453Z,53.53
2019-03-30T07:37:03.951Z,53.43
2019-03-30T07:39:34.145Z,54.40
2019-03-30T07:42:04.318Z,53.90
2019-03-30T07:44:34.516Z,54.70
2019-03-30T07:47:05.019Z,54.43
2019-03-30T07:49:35.214Z,55.00
2019-03-30T07:52:05.386Z,55.70
2019-03-30T07:54:35.578Z,54.87
2019-03-30T07:57:16.557Z,55.27
2019-03-30T07:59:39.478Z,56.00
2019-03-30T08:02:09.659Z,55.70
2019-03-30T08:04:39.844Z,55.87
2019-03-30T08:07:10.108Z,56.37
2019-03-30T08:09:40.305Z,56.53
2019-03-30T08:12:10.671Z,57.13
2019-03-30T08:14:40.859Z,57.57
2019-03-30T08:17:11.043Z,58.40
2019-03-30T08:19:41.218Z,57.47
2019-03-30T08:22:11.401Z,57.20
2019-03-30T08:24:41.670Z,57.23
2019-03-30T08:27:11.843Z,57.10
2019-03-30T08:29:42.035Z,57.43
2019-03-30T08:32:12.206Z,57.60
2019-03-30T08:34:42.390Z,58.03
2019-03-30T08:37:12.580Z,57.60
2019-03-30T08:39:42.830Z,58.37
2019-03-30T08:42:13.006Z,58.37
2019-03-30T08:44:44.362Z,59.07
2019-03-30T08:47:14.547Z,57.77
2019-03-30T08:49:44.739Z,57.40
2019-03-30T08:52:14.919Z,58.17
2019-03-30T08:54:45.115Z,56.87
2019-03-30T08:57:15.311Z,58.20
2019-03-30T08:59:45.490Z,58.03
2019-03-30T09:02:15.676Z,59.13
2019-03-30T09:04:45.855Z,57.70
2019-03-30T09:07:16.042Z,58.07
2019-03-30T09:09:46.319Z,57.90
2019-03-30T09:12:16.495Z,57.83
2019-03-30T09:14:46.700Z,58.70
2019-03-30T09:17:16.883Z,57.83
2019-03-30T09:19:47.179Z,58.33
2019-03-30T09:22:17.378Z,57.60
2019-03-30T09:24:47.656Z,57.43
2019-03-30T09:27:17.824Z,58.30
2019-03-30T09:29:48.013Z,57.30
2019-03-30T09:32:18.199Z,57.70
2019-03-30T09:34:48.395Z,58.47
2019-03-30T09:37:18.571Z,57.93
2019-03-30T09:39:48.808Z,58.63
2019-03-30T09:42:18.983Z,57.80
2019-03-30T09:44:49.298Z,57.33
2019-03-30T09:47:19.660Z,59.70
2019-03-30T09:49:51.026Z,58.10
2019-03-30T09:52:21.282Z,57.13
2019-03-30T09:54:51.475Z,57.40
2019-03-30T09:57:21.663Z,57.63
2019-03-30T09:59:51.929Z,58.57
2019-03-30T10:02:22.130Z,59.80
2019-03-30T10:04:52.302Z,58.03
2019-03-30T10:07:22.491Z,57.37
2019-03-30T10:09:52.739Z,58.03
2019-03-30T10:12:22.922Z,57.40
2019-03-30T10:14:53.158Z,57.33
2019-03-30T10:17:24.384Z,58.60
2019-03-30T10:20:04.264Z,59.60
2019-03-30T10:22:26.448Z,59.27
2019-03-30T10:24:58.454Z,59.60
2019-03-30T10:27:28.523Z,59.13
2019-03-30T10:29:58.705Z,59.20
2019-03-30T10:32:28.908Z,59.20
2019-03-30T10:34:59.110Z,59.30
2019-03-30T10:37:29.290Z,59.57
2019-03-30T10:39:59.471Z,58.60
2019-03-30T10:42:29.684Z,58.93
2019-03-30T10:44:59.873Z,58.40
2019-03-30T10:47:30.063Z,59.33
2019-03-30T10:50:00.389Z,59.83
2019-03-30T10:52:30.788Z,60.60
2019-03-30T10:55:00.978Z,58.83
2019-03-30T10:57:31.177Z,59.63
2019-03-30T11:00:01.390Z,59.50
2019-03-30T11:02:31.660Z,61.23
2019-03-30T11:05:01.855Z,60.43
2019-03-30T11:07:33.110Z,60.37
2019-03-30T11:10:03.382Z,59.80
2019-03-30T11:12:33.574Z,59.53
2019-03-30T11:15:04.186Z,59.13
2019-03-30T11:17:34.374Z,60.20
2019-03-30T11:20:05.223Z,59.10
2019-03-30T11:22:35.499Z,58.03
2019-03-30T11:25:08.302Z,58.07
2019-03-30T11:27:38.442Z,59.13
2019-03-30T11:30:09.283Z,58.93
2019-03-30T11:32:39.486Z,58.93
2019-03-30T11:35:09.754Z,58.30
2019-03-30T11:37:39.943Z,59.57
2019-03-30T11:40:10.406Z,58.77
2019-03-30T11:42:40.590Z,58.67
2019-03-30T11:45:11.365Z,59.33
2019-03-30T11:47:41.554Z,58.37
2019-03-30T11:50:11.998Z,58.73
2019-03-30T11:52:42.185Z,59.03
2019-03-30T11:55:21.761Z,59.30
2019-03-30T11:57:44.623Z,59.17
2019-03-30T12:00:15.371Z,59.50
2019-03-30T12:02:45.555Z,58.60
2019-03-30T12:05:15.733Z,58.63
2019-03-30T12:07:46.046Z,59.00
2019-03-30T12:10:16.373Z,59.87
2019-03-30T12:12:46.571Z,59.53
2019-03-30T12:15:16.914Z,58.30
2019-03-30T12:17:47.125Z,60.00
2019-03-30T12:20:17.402Z,58.17
2019-03-30T12:22:47.733Z,58.90
2019-03-30T12:25:17.910Z,58.07
2019-03-30T12:27:48.099Z,58.13
2019-03-30T12:30:18.572Z,57.63
2019-03-30T12:32:48.771Z,59.23
2019-03-30T12:35:18.955Z,58.03
2019-03-30T12:37:49.228Z,57.73
2019-03-30T12:40:19.486Z,57.93
2019-03-30T12:42:49.691Z,58.50
2019-03-30T12:45:19.960Z,58.37
2019-03-30T12:47:50.147Z,57.53
2019-03-30T12:50:20.411Z,57.87
2019-03-30T12:52:50.620Z,58.67
2019-03-30T12:55:22.088Z,58.70
2019-03-30T12:57:52.319Z,59.17
2019-03-30T13:00:22.504Z,57.40
2019-03-30T13:02:52.695Z,58.13
2019-03-30T13:05:22.926Z,59.10
2019-03-30T13:07:53.115Z,58.37
2019-03-30T13:10:23.308Z,57.83
2019-03-30T13:12:54.675Z,57.17
2019-03-30T13:15:24.921Z,57.97
2019-03-30T13:17:55.130Z,58.00
2019-03-30T13:20:25.447Z,57.40
2019-03-30T13:22:55.715Z,56.77
2019-03-30T13:25:25.892Z,57.40
2019-03-30T13:27:56.094Z,57.80
2019-03-30T13:30:26.342Z,57.17
2019-03-30T13:32:56.531Z,57.20
2019-03-30T13:35:26.707Z,57.63
2019-03-30T13:37:56.907Z,57.73
2019-03-30T13:40:27.119Z,58.67
2019-03-30T13:42:57.314Z,57.33
2019-03-30T13:45:27.570Z,60.27
2019-03-30T13:47:57.772Z,57.97
2019-03-30T13:50:30.809Z,59.50
2019-03-30T13:52:59.946Z,58.10
2019-03-30T13:55:30.123Z,58.20
2019-03-30T13:58:00.456Z,57.27
2019-03-30T14:00:30.652Z,57.70
2019-03-30T14:03:00.910Z,57.30
2019-03-30T14:05:31.103Z,57.77
2019-03-30T14:08:01.280Z,57.73
2019-03-30T14:10:31.454Z,59.17
2019-03-30T14:13:01.698Z,58.83
2019-03-30T14:15:31.877Z,58.47
2019-03-30T14:18:02.136Z,60.17
2019-03-30T14:20:32.422Z,57.30
2019-03-30T14:23:02.639Z,57.87
2019-03-30T14:25:32.999Z,58.20
2019-03-30T14:28:03.215Z,58.13
2019-03-30T14:30:33.400Z,57.90
2019-03-30T14:33:03.662Z,57.90
2019-03-30T14:35:33.847Z,57.30
2019-03-30T14:38:04.294Z,56.83
2019-03-30T14:40:34.479Z,58.00
2019-03-30T14:43:04.689Z,57.27
2019-03-30T14:45:34.866Z,57.73
2019-03-30T14:48:05.147Z,58.37
2019-03-30T14:50:35.407Z,57.10
2019-03-30T14:53:05.616Z,58.43
2019-03-30T14:55:39.350Z,57.80
2019-03-30T14:58:08.110Z,59.03
2019-03-30T15:00:38.334Z,57.83
2019-03-30T15:03:08.559Z,59.03
2019-03-30T15:05:38.778Z,57.30
2019-03-30T15:08:09.055Z,57.53
2019-03-30T15:10:39.250Z,57.90
2019-03-30T15:13:09.532Z,57.50
2019-03-30T15:15:39.941Z,57.53
2019-03-30T15:18:10.131Z,57.77
2019-03-30T15:20:40.298Z,57.40
2019-03-30T15:23:10.499Z,57.20
2019-03-30T15:25:40.687Z,57.37
2019-03-30T15:28:10.878Z,57.63
2019-03-30T15:30:41.071Z,56.97
2019-03-30T15:33:11.268Z,56.80
2019-03-30T15:35:41.616Z,57.73
2019-03-30T15:38:11.811Z,56.57
2019-03-30T15:40:42.101Z,57.47
2019-03-30T15:43:12.700Z,57.40
2019-03-30T15:45:42.879Z,56.93
2019-03-30T15:48:13.164Z,56.97
2019-03-30T15:50:43.343Z,56.73
2019-03-30T15:53:13.616Z,55.87
2019-03-30T15:55:43.840Z,58.73
2019-03-30T15:58:14.107Z,57.13
2019-03-30T16:00:44.307Z,57.63
2019-03-30T16:03:14.561Z,60.07
2019-03-30T16:05:44.738Z,58.10
2019-03-30T16:08:14.938Z,57.17
2019-03-30T16:10:45.127Z,57.00
2019-03-30T16:13:15.324Z,56.70
2019-03-30T16:15:45.578Z,56.70
2019-03-30T16:18:16.914Z,57.20
2019-03-30T16:20:48.336Z,56.73
2019-03-30T16:23:18.534Z,58.00
2019-03-30T16:25:48.718Z,57.37
2019-03-30T16:28:18.924Z,56.73
2019-03-30T16:30:49.184Z,56.77
2019-03-30T16:33:21.558Z,55.97
2019-03-30T16:35:51.799Z,56.43
2019-03-30T16:38:21.998Z,56.17
2019-03-30T16:40:52.199Z,55.73
2019-03-30T16:43:22.389Z,56.37
2019-03-30T16:45:52.563Z,56.10
2019-03-30T16:48:22.742Z,56.33
2019-03-30T16:50:52.953Z,55.63
2019-03-30T16:53:23.140Z,55.63
2019-03-30T16:55:53.393Z,57.30
2019-03-30T16:58:23.571Z,56.93
2019-03-30T17:00:56.876Z,56.83
2019-03-30T17:03:25.891Z,56.30
2019-03-30T17:05:56.087Z,57.57
2019-03-30T17:08:26.355Z,56.33
2019-03-30T17:10:56.550Z,56.60
2019-03-30T17:13:26.837Z,56.77
2019-03-30T17:15:58.737Z,56.07
2019-03-30T17:18:29.034Z,56.33
2019-03-30T17:20:59.307Z,56.23
2019-03-30T17:23:29.493Z,55.70
2019-03-30T17:25:59.678Z,56.40
2019-03-30T17:28:29.879Z,57.03
2019-03-30T17:31:00.075Z,56.17
2019-03-30T17:33:30.257Z,56.57
2019-03-30T17:36:00.444Z,55.73
2019-03-30T17:38:30.633Z,56.03
2019-03-30T17:41:02.240Z,55.77
2019-03-30T17:43:32.423Z,56.50
2019-03-30T17:48:40.134Z,56.27
2019-03-30T17:53:53.239Z,55.70
2019-03-30T17:56:23.507Z,56.73
2019-03-30T17:58:53.708Z,56.17
2019-03-30T18:01:23.956Z,55.87
2019-03-30T18:03:54.145Z,55.93
2019-03-30T18:06:24.346Z,55.83
2019-03-30T18:08:54.584Z,56.00
2019-03-30T18:11:24.772Z,55.77
2019-03-30T18:13:54.959Z,56.10
2019-03-30T18:16:25.239Z,57.07
2019-03-30T18:18:57.481Z,55.70
2019-03-30T18:21:27.766Z,56.03
2019-03-30T18:23:57.956Z,55.63
2019-03-30T18:26:28.150Z,55.83
2019-03-30T18:28:58.475Z,56.37
2019-03-30T18:31:28.755Z,55.13
2019-03-30T18:33:59.389Z,56.30
2019-03-30T18:36:30.869Z,55.90
2019-03-30T18:39:09.511Z,56.90
2019-03-30T18:41:35.537Z,56.13
2019-03-30T18:44:05.719Z,55.50
2019-03-30T18:46:36.056Z,56.40
2019-03-30T18:49:06.278Z,56.77
2019-03-30T18:51:37.123Z,56.23
2019-03-30T18:54:07.651Z,56.77
2019-03-30T18:56:37.939Z,56.10
2019-03-30T18:59:08.122Z,56.07
2019-03-30T19:01:38.318Z,56.20
2019-03-30T19:04:08.499Z,56.63
2019-03-30T19:06:38.763Z,56.47
2019-03-30T19:09:09.320Z,56.70
2019-03-30T19:11:39.783Z,56.50
2019-03-30T19:14:09.974Z,56.87
2019-03-30T19:16:40.175Z,55.87
2019-03-30T19:19:10.346Z,56.23
2019-03-30T19:21:40.539Z,55.63
2019-03-30T19:24:10.735Z,56.17
2019-03-30T19:26:40.994Z,56.63
2019-03-30T19:29:11.174Z,56.67
2019-03-30T19:31:41.360Z,55.70
2019-03-30T19:34:11.538Z,57.10
2019-03-30T19:36:41.744Z,56.20
2019-03-30T19:39:11.935Z,56.43
2019-03-30T19:41:42.132Z,55.43
2019-03-30T19:44:12.303Z,55.80
2019-03-30T19:46:42.563Z,56.30
2019-03-30T19:49:13.816Z,55.63
2019-03-30T19:51:44.003Z,55.87
2019-03-30T19:54:14.194Z,55.67
2019-03-30T19:56:44.395Z,54.50
2019-03-30T19:59:14.586Z,56.10
2019-03-30T20:01:44.791Z,55.97
2019-03-30T20:04:16.038Z,55.63
2019-03-30T20:06:46.231Z,55.13
2019-03-30T20:09:20.678Z,55.13
2019-03-30T20:11:49.763Z,56.27
2019-03-30T20:14:19.951Z,55.80
2019-03-30T20:16:50.151Z,55.47
2019-03-30T20:19:20.330Z,55.63
2019-03-30T20:21:50.514Z,56.03
2019-03-30T20:24:20.698Z,56.53
2019-03-30T20:26:50.887Z,55.67
2019-03-30T20:29:25.711Z,56.00
2019-03-30T20:31:53.650Z,55.70
2019-03-30T20:34:23.912Z,55.87
2019-03-30T20:36:54.105Z,56.00
2019-03-30T20:39:24.303Z,57.10
2019-03-30T20:41:54.524Z,55.40
2019-03-30T20:44:24.723Z,55.90
2019-03-30T20:46:54.996Z,55.70
2019-03-30T20:49:25.189Z,55.43
2019-03-30T20:51:55.435Z,55.27
2019-03-30T20:54:25.631Z,55.70
2019-03-30T20:56:55.910Z,56.70
2019-03-30T20:59:39.371Z,55.73
2019-03-30T21:01:58.042Z,55.73
2019-03-30T21:04:28.238Z,56.27
2019-03-30T21:06:58.567Z,56.63
2019-03-30T21:09:28.755Z,55.67
2019-03-30T21:11:58.946Z,56.07
2019-03-30T21:14:29.211Z,56.70
2019-03-30T21:16:59.682Z,56.20
2019-03-30T21:19:29.859Z,56.03
2019-03-30T21:22:00.050Z,56.20
2019-03-30T21:24:30.250Z,56.40
2019-03-30T21:27:00.440Z,55.50
2019-03-30T21:29:30.623Z,56.33
2019-03-30T21:32:00.887Z,57.17
2019-03-30T21:34:31.078Z,55.83
2019-03-30T21:37:01.264Z,56.23
2019-03-30T21:39:31.475Z,55.63
2019-03-30T21:42:01.695Z,55.67
2019-03-30T21:44:31.868Z,56.10
2019-03-30T21:47:02.054Z,56.27
2019-03-30T21:49:33.211Z,56.43
2019-03-30T21:52:03.398Z,56.77
2019-03-30T21:54:33.582Z,56.60
2019-03-30T21:57:03.844Z,55.97
2019-03-30T21:59:34.021Z,56.57
2019-03-30T22:02:04.212Z,56.30
2019-03-30T22:04:34.381Z,57.00
2019-03-30T22:07:05.031Z,56.20
2019-03-30T22:09:35.838Z,56.07
2019-03-30T22:12:06.051Z,57.97
2019-03-30T22:14:36.341Z,56.97
2019-03-30T22:17:06.571Z,56.87
2019-03-30T22:19:36.746Z,57.73
2019-03-30T22:22:06.939Z,56.23
2019-03-30T22:24:37.190Z,56.03
2019-03-30T22:27:08.349Z,56.07
2019-03-30T22:29:38.527Z,57.10
2019-03-30T22:32:08.718Z,56.23
2019-03-30T22:34:38.903Z,56.17
2019-03-30T22:37:09.178Z,56.07
2019-03-30T22:39:39.342Z,55.77
2019-03-30T22:42:09.526Z,56.23
2019-03-30T22:44:39.706Z,56.17
2019-03-30T22:47:09.896Z,56.10
2019-03-30T22:49:40.087Z,56.07
2019-03-30T22:52:10.294Z,56.30
2019-03-30T22:54:40.531Z,57.20
2019-03-30T22:57:10.711Z,56.67
2019-03-30T22:59:40.906Z,56.37
2019-03-30T23:02:12.484Z,56.60
2019-03-30T23:04:42.651Z,56.27
2019-03-30T23:07:12.839Z,56.27
2019-03-30T23:09:43.392Z,56.70
2019-03-30T23:12:13.582Z,55.83
2019-03-30T23:14:43.774Z,58.33
2019-03-30T23:17:13.976Z,56.87
2019-03-30T23:19:44.161Z,55.90
2019-03-30T23:22:14.339Z,56.27
2019-03-30T23:24:44.527Z,56.93
2019-03-30T23:27:14.710Z,57.80
2019-03-30T23:29:44.898Z,57.37
2019-03-30T23:32:15.158Z,57.43
2019-03-30T23:34:45.344Z,56.67
2019-03-30T23:37:15.528Z,57.53
2019-03-30T23:39:45.774Z,56.20
2019-03-30T23:42:15.991Z,58.10
2019-03-30T23:44:46.254Z,56.47
2019-03-30T23:47:16.452Z,57.97
2019-03-30T23:49:46.638Z,57.50
2019-03-30T23:52:16.828Z,58.37
2019-03-30T23:54:47.047Z,57.37
2019-03-30T23:57:18.460Z,57.43
2019-03-30T23:59:48.727Z,56.87
